sensor_id;sensor_type;location;lat;lon;timestamp;pressure;altitude;pressure_sealevel;temperature;humidity
12073;BME280;6098;49.004;8.372;2023-02-04T00:03:20;101820.72;;;9.08;95.01
12073;BME280;6098;49.004;8.372;2023-02-04T00:18:11;101822.93;;;9.09;95.22
12073;BME280;6098;49.004;8.372;2023-02-04T00:33:01;101837.89;;;9.09;96.21
12073;BME280;6098;49.004;8.372;2023-02-04T00:47:51;101835.32;;;9.02;97.29
12073;BME280;6098;49.004;8.372;2023-02-04T01:02:42;101833.20;;;8.93;99.42
12073;BME280;6098;49.004;8.372;2023-02-04T01:17:32;101834.58;;;8.88;100.00
12073;BME280;6098;49.004;8.372;2023-02-04T01:32:25;101836.36;;;8.86;100.00
12073;BME280;6098;49.004;8.372;2023-02-04T01:47:18;101853.53;;;8.85;100.00
12073;BME280;6098;49.004;8.372;2023-02-04T02:02:37;101852.33;;;8.73;100.00
12073;BME280;6098;49.004;8.372;2023-02-04T02:17:32;101867.34;;;8.66;100.00
12073;BME280;6098;49.004;8.372;2023-02-04T02:32:22;101892.53;;;8.58;100.00
12073;BME280;6098;49.004;8.372;2023-02-04T02:47:17;101905.31;;;8.58;100.00
12073;BME280;6098;49.004;8.372;2023-02-04T03:02:10;101915.45;;;8.55;100.00
12073;BME280;6098;49.004;8.372;2023-02-04T03:17:00;101922.48;;;8.58;100.00
12073;BME280;6098;49.004;8.372;2023-02-04T03:31:51;101932.27;;;8.45;100.00
12073;BME280;6098;49.004;8.372;2023-02-04T03:46:42;101946.36;;;8.43;100.00
12073;BME280;6098;49.004;8.372;2023-02-04T04:01:35;101984.70;;;8.37;100.00
12073;BME280;6098;49.004;8.372;2023-02-04T04:16:26;101989.14;;;8.23;100.00
12073;BME280;6098;49.004;8.372;2023-02-04T04:31:16;101986.53;;;8.11;100.00
12073;BME280;6098;49.004;8.372;2023-02-04T04:46:07;102000.60;;;8.10;100.00
12073;BME280;6098;49.004;8.372;2023-02-04T05:00:58;102002.81;;;8.06;100.00
12073;BME280;6098;49.004;8.372;2023-02-04T05:15:50;101990.50;;;8.07;100.00
12073;BME280;6098;49.004;8.372;2023-02-04T05:30:41;101997.55;;;8.08;100.00
12073;BME280;6098;49.004;8.372;2023-02-04T05:45:32;102012.94;;;8.07;100.00
12073;BME280;6098;49.004;8.372;2023-02-04T06:00:24;102020.86;;;8.07;99.94
12073;BME280;6098;49.004;8.372;2023-02-04T06:15:16;102054.78;;;8.03;99.59
12073;BME280;6098;49.004;8.372;2023-02-04T06:30:07;102074.59;;;8.06;99.02
12073;BME280;6098;49.004;8.372;2023-02-04T06:44:58;102083.80;;;8.08;97.92
12073;BME280;6098;49.004;8.372;2023-02-04T06:59:50;102102.76;;;8.04;92.06
12073;BME280;6098;49.004;8.372;2023-02-04T07:14:40;102109.36;;;8.01;92.44
12073;BME280;6098;49.004;8.372;2023-02-04T07:29:32;102144.55;;;8.03;92.99
12073;BME280;6098;49.004;8.372;2023-02-04T07:44:24;102149.40;;;8.08;92.88
12073;BME280;6098;49.004;8.372;2023-02-04T07:59:15;102176.25;;;8.16;92.98
12073;BME280;6098;49.004;8.372;2023-02-04T08:14:06;102206.68;;;8.25;90.89
12073;BME280;6098;49.004;8.372;2023-02-04T08:28:58;102222.09;;;8.32;88.71
12073;BME280;6098;49.004;8.372;2023-02-04T08:43:47;102220.73;;;8.49;87.28
12073;BME280;6098;49.004;8.372;2023-02-04T08:58:39;102239.66;;;8.55;84.01
12073;BME280;6098;49.004;8.372;2023-02-04T09:13:29;102256.83;;;8.82;82.29
12073;BME280;6098;49.004;8.372;2023-02-04T09:28:21;102247.46;;;9.26;80.51
12073;BME280;6098;49.004;8.372;2023-02-04T09:43:19;102266.42;;;9.30;78.10
12073;BME280;6098;49.004;8.372;2023-02-04T09:58:21;102280.97;;;9.24;76.33
12073;BME280;6098;49.004;8.372;2023-02-04T10:28:05;102303.39;;;9.50;75.23
12073;BME280;6098;49.004;8.372;2023-02-04T10:42:56;102302.81;;;9.77;71.24
12073;BME280;6098;49.004;8.372;2023-02-04T10:57:48;102293.00;;;9.98;65.93
12073;BME280;6098;49.004;8.372;2023-02-04T11:27:47;102294.83;;;9.87;67.97
12073;BME280;6098;49.004;8.372;2023-02-04T11:57:36;102291.57;;;10.22;67.92
12073;BME280;6098;49.004;8.372;2023-02-04T12:12:23;102287.21;;;10.06;65.97
12073;BME280;6098;49.004;8.372;2023-02-04T12:27:17;102278.38;;;10.06;64.93
12073;BME280;6098;49.004;8.372;2023-02-04T12:42:08;102280.96;;;10.73;60.38
12073;BME280;6098;49.004;8.372;2023-02-04T12:56:58;102287.02;;;10.37;64.28
12073;BME280;6098;49.004;8.372;2023-02-04T13:11:47;102295.90;;;10.32;63.16
12073;BME280;6098;49.004;8.372;2023-02-04T13:26:38;102295.54;;;10.75;57.86
12073;BME280;6098;49.004;8.372;2023-02-04T13:41:30;102290.74;;;11.12;59.22
12073;BME280;6098;49.004;8.372;2023-02-04T13:56:20;102294.92;;;10.46;57.28
12073;BME280;6098;49.004;8.372;2023-02-04T14:11:09;102309.31;;;10.10;60.47
12073;BME280;6098;49.004;8.372;2023-02-04T14:26:01;102316.80;;;10.14;58.44
12073;BME280;6098;49.004;8.372;2023-02-04T14:40:51;102323.36;;;10.23;56.18
12073;BME280;6098;49.004;8.372;2023-02-04T14:55:42;102318.53;;;10.20;55.36
12073;BME280;6098;49.004;8.372;2023-02-04T15:10:33;102315.84;;;10.25;56.13
12073;BME280;6098;49.004;8.372;2023-02-04T15:25:24;102311.45;;;10.17;55.88
12073;BME280;6098;49.004;8.372;2023-02-04T15:40:14;102323.92;;;9.96;54.06
12073;BME280;6098;49.004;8.372;2023-02-04T15:55:05;102324.42;;;9.83;55.02
12073;BME280;6098;49.004;8.372;2023-02-04T16:09:56;102347.85;;;9.73;56.53
12073;BME280;6098;49.004;8.372;2023-02-04T16:24:46;102359.84;;;9.53;60.51
12073;BME280;6098;49.004;8.372;2023-02-04T16:39:37;102375.36;;;9.35;63.32
12073;BME280;6098;49.004;8.372;2023-02-04T16:54:27;102387.73;;;9.14;64.76
12073;BME280;6098;49.004;8.372;2023-02-04T17:09:17;102393.47;;;8.97;66.71
12073;BME280;6098;49.004;8.372;2023-02-04T17:24:09;102396.97;;;8.77;68.58
12073;BME280;6098;49.004;8.372;2023-02-04T17:38:58;102414.13;;;8.55;69.93
12073;BME280;6098;49.004;8.372;2023-02-04T17:53:48;102416.31;;;8.36;70.85
12073;BME280;6098;49.004;8.372;2023-02-04T18:08:38;102411.34;;;8.07;71.78
12073;BME280;6098;49.004;8.372;2023-02-04T18:23:28;102416.14;;;8.01;72.68
12073;BME280;6098;49.004;8.372;2023-02-04T18:38:26;102419.23;;;7.98;73.46
12073;BME280;6098;49.004;8.372;2023-02-04T18:53:21;102426.19;;;7.83;73.31
12073;BME280;6098;49.004;8.372;2023-02-04T19:23:13;102444.09;;;7.60;73.69
12073;BME280;6098;49.004;8.372;2023-02-04T19:53:21;102448.87;;;7.49;75.08
12073;BME280;6098;49.004;8.372;2023-02-04T20:08:35;102451.48;;;7.44;75.12
12073;BME280;6098;49.004;8.372;2023-02-04T20:23:28;102439.07;;;7.32;73.93
12073;BME280;6098;49.004;8.372;2023-02-04T20:38:19;102443.77;;;7.16;74.26
12073;BME280;6098;49.004;8.372;2023-02-04T21:23:20;102482.82;;;7.06;76.55
12073;BME280;6098;49.004;8.372;2023-02-04T21:38:09;102498.91;;;6.89;77.33
12073;BME280;6098;49.004;8.372;2023-02-04T21:53:00;102495.66;;;6.72;78.71
12073;BME280;6098;49.004;8.372;2023-02-04T22:07:49;102489.28;;;6.53;79.37
12073;BME280;6098;49.004;8.372;2023-02-04T22:22:40;102482.45;;;6.33;80.00
12073;BME280;6098;49.004;8.372;2023-02-04T22:37:30;102476.89;;;6.09;80.94
12073;BME280;6098;49.004;8.372;2023-02-04T22:52:20;102485.48;;;5.94;81.36
12073;BME280;6098;49.004;8.372;2023-02-04T23:07:11;102467.64;;;5.76;82.59
12073;BME280;6098;49.004;8.372;2023-02-04T23:22:00;102489.01;;;5.68;82.70
12073;BME280;6098;49.004;8.372;2023-02-04T23:36:51;102483.25;;;5.63;83.30
12073;BME280;6098;49.004;8.372;2023-02-04T23:51:43;102490.61;;;5.58;83.75
